Elkton, Oregon
Current Conditions -  °F | °C
As of 11:21 PM on Thursday 30 Oct 2014 (Local Time) from KRBG Reporting Station
Light Rain Light Rain  
Wind Chill: 58°   Ceiling: 200
Heat Index: 58°   Visibility: 3mi
Dew Point: 56°   Wind: 0mph
Humidity: 93%   Direction: NA
Pressure: 29.77"   Gusts: NA
Location:  43.64°N, 123.57°W
Report Text: KRBG 310621Z AUTO 00000KT 3SM -RA BR BKN002 BKN049 OVC090 14/13 A2977 RMK AO2 P0001 T01440133
Loading
Personal Weather Stations






























Interactive Weather Map
Tropical Storm Tracking
New forecast layout! Learn more

10-Day Weather Forecast

Advertisements
Track Severe Weather on mobile